Time;durP1;ratioP1;P1;durP2;ratioP2;P2;SDS_P1;SDS_P2;PMS_P1;PMS_P2;Temp;Humidity;BMP_temperature;BMP_pressure;BME280_temperature;BME280_humidity;BME280_pressure;Samples;Min_cycle;Max_cycle;Signal;HPM_P1;HPM_P2
2022/05/11 00:01:45;;;;;;;3.63;1.73;;;;;;;7.18;53.48;100589.99;1725029;81;21056;-76
2022/05/11 00:04:13;;;;;;;4.50;2.43;;;;;;;7.14;53.60;100588.66;1728014;81;21002;-83
2022/05/11 00:06:40;;;;;;;3.13;2.33;;;;;;;7.12;53.77;100593.29;1730562;81;21558;-81
2022/05/11 00:09:11;;;;;;;5.13;2.23;;;;;;;7.08;54.02;100589.77;1725745;81;21030;-77
2022/05/11 00:11:39;;;;;;;5.73;2.17;;;;;;;7.02;53.99;100596.55;1739430;81;21050;-83
2022/05/11 00:14:06;;;;;;;6.17;2.37;;;;;;;6.98;54.19;100597.85;1724912;81;21042;-83
2022/05/11 00:16:34;;;;;;;3.57;2.07;;;;;;;6.94;54.31;100591.22;1729890;81;21133;-81
2022/05/11 00:19:00;;;;;;;4.57;2.30;;;;;;;6.92;54.50;100597.17;1730387;81;20998;-74
2022/05/11 00:21:26;;;;;;;7.12;2.47;;;;;;;6.87;54.67;100591.00;1720380;81;21082;-85
2022/05/11 00:23:53;;;;;;;8.00;3.05;;;;;;;6.81;54.86;100589.81;1718342;81;21056;-84
2022/05/11 00:26:20;;;;;;;3.40;2.20;;;;;;;6.78;55.13;100595.45;1719237;81;20994;-81
2022/05/11 00:28:47;;;;;;;4.07;1.87;;;;;;;6.75;55.33;100596.25;1731426;81;21049;-84
2022/05/11 00:31:15;;;;;;;6.67;2.80;;;;;;;6.72;55.51;100594.72;1738717;81;21031;-69
2022/05/11 00:33:42;;;;;;;4.37;2.33;;;;;;;6.71;55.71;100597.05;1717237;82;21048;-84
2022/05/11 00:36:11;;;;;;;3.40;2.90;;;;;;;6.70;55.87;100598.53;1703954;83;21865;-82
2022/05/11 00:38:39;;;;;;;3.30;2.20;;;;;;;6.68;55.96;100597.36;1675786;83;21089;-83
2022/05/11 00:41:06;;;;;;;3.23;1.97;;;;;;;6.65;55.98;100597.69;1701538;83;20981;-79
2022/05/11 00:43:37;;;;;;;6.80;2.57;;;;;;;6.65;56.06;100597.69;1703498;83;21555;-81
2022/05/11 00:46:21;;;;;;;2.83;2.10;;;;;;;6.63;56.20;100594.38;1702109;82;20984;-83
2022/05/11 00:51:50;;;;;;;4.77;2.23;;;;;;;6.61;56.31;100592.34;1698674;82;21015;-77
2022/05/11 00:54:20;;;;;;;2.93;2.60;;;;;;;6.57;56.19;100589.67;1698206;83;21057;-84
2022/05/11 00:56:51;;;;;;;2.83;2.30;;;;;;;6.53;56.26;100593.13;1701706;81;21447;-85
2022/05/11 00:59:23;;;;;;;4.20;2.70;;;;;;;6.51;56.31;100588.98;1690085;83;21121;-80
2022/05/11 01:01:51;;;;;;;4.13;2.97;;;;;;;6.51;56.33;100591.62;1710083;82;21058;-70
2022/05/11 01:04:21;;;;;;;2.43;1.73;;;;;;;6.50;56.40;100588.63;1722907;82;21142;-84
2022/05/11 01:06:48;;;;;;;6.40;2.23;;;;;;;6.51;56.41;100588.98;1718650;81;21133;-81
2022/05/11 01:09:14;;;;;;;3.47;2.40;;;;;;;6.51;56.45;100589.80;1731234;82;21015;-85
2022/05/11 01:11:46;;;;;;;;;;;;;;;6.50;56.56;100587.30;1726783;81;20992;-85
2022/05/11 01:14:18;;;;;;;6.40;2.23;;;;;;;6.47;56.55;100584.98;1708663;82;20134;-71
2022/05/11 01:16:46;;;;;;;3.50;2.43;;;;;;;6.37;56.65;100584.59;1708859;82;21023;-73
2022/05/11 01:19:21;;;;;;;6.00;2.43;;;;;;;6.36;56.70;100586.88;1701324;82;21020;-83
2022/05/11 01:22:15;;;;;;;3.37;2.60;;;;;;;6.37;56.81;100593.03;1707300;82;21672;-76
2022/05/11 01:24:45;;;;;;;3.93;2.40;;;;;;;6.34;56.87;100586.21;1712321;82;20985;-82
2022/05/11 01:27:36;;;;;;;4.20;2.50;;;;;;;6.30;56.91;100591.48;1707746;82;21017;-82
2022/05/11 01:30:23;;;;;;;4.37;2.73;;;;;;;6.25;56.99;100591.11;1710721;82;20989;-81
2022/05/11 01:32:52;;;;;;;;;;;;;;;6.24;57.14;100589.46;1711618;82;21061;-83
2022/05/11 01:35:59;;;;;;;8.00;2.90;;;;;;;6.23;57.27;100584.66;1621349;86;20164;-82
2022/05/11 01:38:34;;;;;;;3.87;2.37;;;;;;;6.19;57.32;100586.43;1697478;82;21501;-80
2022/05/11 01:41:01;;;;;;;3.00;2.50;;;;;;;6.16;57.39;100584.94;1663264;84;22300;-75
2022/05/11 01:43:32;;;;;;;6.58;2.22;;;;;;;6.16;57.41;100584.08;1690807;83;21017;-84
2022/05/11 01:45:58;;;;;;;4.40;2.30;;;;;;;6.18;57.43;100578.17;1704881;82;20964;-80
2022/05/11 01:48:25;;;;;;;2.62;2.37;;;;;;;6.18;57.49;100580.81;1687675;82;21099;-83
2022/05/11 01:50:53;;;;;;;3.30;2.43;;;;;;;6.17;57.46;100578.64;1698115;82;21047;-81
2022/05/11 01:53:20;;;;;;;8.87;2.40;;;;;;;6.18;57.45;100581.64;1703384;82;21132;-73
2022/05/11 01:55:46;;;;;;;4.47;2.52;;;;;;;6.20;57.56;100576.20;1693554;82;20953;-80
2022/05/11 01:58:13;;;;;;;5.20;2.70;;;;;;;6.21;57.55;100575.20;1703391;82;21064;-84
2022/05/11 02:00:44;;;;;;;5.50;2.17;;;;;;;6.23;57.44;100573.22;1707954;83;20989;-80
2022/05/11 02:03:11;;;;;;;3.27;2.50;;;;;;;6.25;57.41;100573.90;1692842;82;21083;-77
2022/05/11 02:08:23;;;;;;;7.20;3.37;;;;;;;6.33;57.23;100563.86;1699440;82;20989;-83
2022/05/11 02:10:49;;;;;;;4.13;2.30;;;;;;;6.33;57.25;100565.18;1693324;82;22228;-84
2022/05/11 02:13:16;;;;;;;3.42;2.62;;;;;;;6.31;57.34;100566.69;1700632;82;21086;-83
2022/05/11 02:15:42;;;;;;;;;;;;;;;6.28;57.46;100563.02;1701562;82;21067;-82
2022/05/11 02:18:09;;;;;;;2.70;2.50;;;;;;;6.27;57.63;100563.98;1697901;82;20188;-80
2022/05/11 02:20:35;;;;;;;2.62;2.37;;;;;;;6.23;57.78;100561.31;1701128;82;21015;-67
2022/05/11 02:23:02;;;;;;;4.62;2.67;;;;;;;6.27;57.71;100567.13;1691182;82;21078;-76
2022/05/11 02:25:28;;;;;;;4.57;2.73;;;;;;;6.28;57.73;100560.86;1701642;82;21045;-80
2022/05/11 02:27:55;;;;;;;5.90;2.70;;;;;;;6.30;57.78;100564.19;1706729;82;21075;-83
2022/05/11 02:30:26;;;;;;;2.83;2.55;;;;;;;6.30;57.86;100565.01;1708421;82;21124;-74
2022/05/11 02:32:53;;;;;;;2.67;2.43;;;;;;;6.32;57.85;100568.33;1705785;82;21077;-82
2022/05/11 02:35:21;;;;;;;6.70;2.60;;;;;;;6.33;57.92;100571.33;1692659;83;20982;-81
2022/05/11 02:37:54;;;;;;;4.60;3.37;;;;;;;6.37;57.95;100570.03;1702023;82;21526;-77
2022/05/11 02:40:29;;;;;;;4.37;2.97;;;;;;;6.40;57.84;100567.08;1696183;83;21046;-77
2022/05/11 02:42:56;;;;;;;6.07;3.40;;;;;;;6.46;57.77;100570.07;1685166;82;20982;-84
2022/05/11 02:45:24;;;;;;;4.70;2.53;;;;;;;6.50;57.57;100567.44;1698559;83;20982;-85
2022/05/11 02:47:53;;;;;;;5.53;2.57;;;;;;;6.55;57.55;100563.84;1700291;83;21026;-83
2022/05/11 02:50:24;;;;;;;4.23;2.40;;;;;;;6.61;57.42;100567.17;1691441;83;21026;-84
2022/05/11 02:52:50;;;;;;;3.30;2.80;;;;;;;6.68;57.35;100571.38;1694748;82;21160;-81
2022/05/11 02:55:17;;;;;;;2.22;2.02;;;;;;;6.81;57.31;100565.97;1694100;82;21007;-84
2022/05/11 02:57:43;;;;;;;3.00;2.43;;;;;;;7.01;57.30;100561.77;1693812;84;21534;-84
2022/05/11 03:00:14;;;;;;;4.05;2.60;;;;;;;7.36;56.83;100554.58;1700480;83;20955;-84
2022/05/11 03:02:40;;;;;;;3.13;2.20;;;;;;;7.72;55.94;100560.94;1696689;84;21011;-77
2022/05/11 03:05:11;;;;;;;4.40;2.02;;;;;;;8.13;55.46;100554.32;1705991;82;21152;-80
2022/05/11 03:07:39;;;;;;;4.07;2.53;;;;;;;8.69;54.43;100552.59;1702361;82;21012;-88
2022/05/11 03:10:08;;;;;;;2.87;2.13;;;;;;;9.35;52.88;100552.31;1695883;83;21095;-86
2022/05/11 03:12:37;;;;;;;2.63;1.90;;;;;;;9.96;51.04;100552.89;1693890;83;21052;-86
2022/05/11 03:15:06;;;;;;;6.97;2.23;;;;;;;10.59;49.46;100553.00;1686731;84;21064;-89
2022/05/11 03:17:35;;;;;;;2.83;2.00;;;;;;;11.27;47.87;100551.01;1706627;84;21075;-78
2022/05/11 03:20:05;;;;;;;2.50;2.10;;;;;;;11.96;46.18;100552.85;1708749;84;21036;-77
2022/05/11 03:22:31;;;;;;;6.53;2.12;;;;;;;12.58;44.46;100549.44;1712774;82;20999;-70
2022/05/11 03:24:58;;;;;;;4.72;1.87;;;;;;;13.21;42.71;100545.30;1719792;83;21583;-90
2022/05/11 03:27:24;;;;;;;4.65;1.98;;;;;;;13.77;41.23;100543.42;1723725;83;21503;-91
2022/05/11 03:29:52;;;;;;;2.20;1.72;;;;;;;14.30;39.54;100547.45;1716643;83;21030;-86
2022/05/11 03:35:07;;;;;;;2.95;1.95;;;;;;;15.08;37.07;100542.63;1713013;81;20985;-70
2022/05/11 03:37:35;;;;;;;3.67;2.20;;;;;;;15.26;35.88;100539.25;1721900;82;21070;-87
2022/05/11 03:40:03;;;;;;;3.37;1.42;;;;;;;15.58;35.18;100551.38;1724181;83;21048;-76
2022/05/11 03:42:32;;;;;;;4.08;1.55;;;;;;;16.02;32.51;100550.98;1715404;83;21061;-82
2022/05/11 03:45:19;;;;;;;3.58;1.90;;;;;;;16.34;30.99;100545.54;1721196;83;20999;-87
2022/05/11 03:47:47;;;;;;;3.77;1.67;;;;;;;16.57;30.28;100550.28;1685466;83;21543;-87
2022/05/11 03:50:19;;;;;;;5.08;2.90;;;;;;;16.85;29.46;100553.84;1724220;83;21039;-91
2022/05/11 03:52:45;;;;;;;4.80;2.85;;;;;;;16.98;28.86;100554.21;1718498;82;21010;-73
2022/05/11 03:55:12;;;;;;;;;;;;;;;17.16;29.05;100555.23;1715924;83;21070;-86
2022/05/11 03:57:39;;;;;;;3.58;2.50;;;;;;;17.47;28.12;100555.56;1725107;82;20154;-86
2022/05/11 04:00:15;;;;;;;3.05;1.62;;;;;;;17.59;27.37;100548.86;1732110;81;21122;-83
2022/05/11 04:02:43;;;;;;;5.15;1.92;;;;;;;17.60;27.35;100551.33;1704523;82;21139;-80
2022/05/11 04:05:11;;;;;;;4.58;2.55;;;;;;;17.68;26.93;100547.48;1721795;82;21156;-90
2022/05/11 04:07:40;;;;;;;4.58;2.33;;;;;;;17.75;26.97;100548.74;1721192;82;21352;-69
2022/05/11 04:10:09;;;;;;;1.90;1.27;;;;;;;17.83;26.93;100548.40;1706330;80;20932;-89
2022/05/11 04:12:35;;;;;;;5.20;1.82;;;;;;;18.02;26.46;100548.63;1704227;82;21189;-80
2022/05/11 04:15:05;;;;;;;5.35;1.70;;;;;;;18.29;26.65;100557.12;1703425;83;21046;-78
2022/05/11 04:17:32;;;;;;;3.70;1.57;;;;;;;18.65;26.81;100559.27;1694405;84;21097;-79
2022/05/11 04:19:59;;;;;;;2.80;1.22;;;;;;;19.10;25.39;100559.68;1697502;80;20971;-73
2022/05/11 04:22:28;;;;;;;1.60;1.25;;;;;;;19.30;25.29;100557.92;1691381;79;87302;-89
2022/05/11 04:24:58;;;;;;;6.75;1.37;;;;;;;19.48;25.08;100562.30;1692189;84;21044;-87
2022/05/11 04:27:29;;;;;;;2.27;1.25;;;;;;;19.60;24.39;100555.78;1698856;83;21040;-88
2022/05/11 04:30:03;;;;;;;2.75;1.60;;;;;;;19.74;24.06;100554.15;1672193;84;21063;-88
2022/05/11 04:32:32;;;;;;;2.92;1.70;;;;;;;19.85;24.12;100560.02;1688301;84;21040;-88
2022/05/11 04:34:59;;;;;;;3.90;1.05;;;;;;;20.00;24.46;100556.25;1658162;84;21063;-88
2022/05/11 04:37:26;;;;;;;2.10;0.68;;;;;;;20.13;23.34;100555.08;1635522;86;21056;-89
2022/05/11 04:40:01;;;;;;;4.45;1.10;;;;;;;20.01;23.38;100553.81;1645843;84;21032;-88
2022/05/11 04:42:28;;;;;;;1.40;1.10;;;;;;;19.85;23.24;100553.27;1666304;84;21071;-89
2022/05/11 04:44:58;;;;;;;1.52;0.93;;;;;;;19.71;23.48;100555.98;1666359;84;21063;-87
2022/05/11 04:47:25;;;;;;;4.65;1.00;;;;;;;19.67;23.51;100552.13;1665118;84;21051;-88
2022/05/11 04:49:57;;;;;;;2.65;0.82;;;;;;;19.68;23.58;100519.95;1662014;84;21012;-89
2022/05/11 04:52:26;;;;;;;2.87;0.60;;;;;;;20.16;23.02;100549.72;1661741;84;21055;-88
2022/05/11 04:54:57;;;;;;;1.98;1.15;;;;;;;20.37;22.63;100544.89;1665884;84;20975;-88
2022/05/11 04:57:28;;;;;;;4.20;1.20;;;;;;;20.31;22.43;100545.89;1674777;84;21004;-89
2022/05/11 04:59:56;;;;;;;5.33;0.88;;;;;;;20.09;22.80;100544.46;1673173;83;21027;-87
2022/05/11 05:02:27;;;;;;;2.33;0.72;;;;;;;20.08;23.38;100552.81;1673033;84;21022;-89
2022/05/11 05:05:05;;;;;;;7.00;0.70;;;;;;;20.15;22.44;100544.81;1669697;84;21075;-88
2022/05/11 05:07:34;;;;;;;4.15;0.60;;;;;;;20.07;23.10;100544.43;1672557;84;21086;-89
2022/05/11 05:10:05;;;;;;;1.25;0.90;;;;;;;20.19;22.93;100546.50;1673658;86;21011;-89
2022/05/11 05:12:32;;;;;;;2.72;0.80;;;;;;;20.20;22.63;100541.39;1630785;86;21594;-90
2022/05/11 05:15:03;;;;;;;2.77;0.75;;;;;;;20.12;22.75;100540.46;1673455;84;21155;-90
2022/05/11 05:17:29;;;;;;;1.30;0.90;;;;;;;20.19;22.74;100541.93;1670586;86;21004;-91
2022/05/11 05:19:55;;;;;;;1.55;0.88;;;;;;;20.45;22.72;100542.83;1667274;85;21049;-90
2022/05/11 05:22:24;;;;;;;3.77;0.90;;;;;;;20.43;22.73;100535.77;1645360;86;21104;-90
2022/05/11 05:24:52;;;;;;;;;;;;;;;20.25;22.46;100544.18;1650975;86;21049;-89
2022/05/11 05:27:20;;;;;;;4.60;0.82;;;;;;;20.09;23.06;100542.30;1673967;86;20161;-87
2022/05/11 05:32:38;;;;;;;7.13;2.40;;;;;;;19.88;23.44;100552.78;1677380;83;20094;-87
2022/05/11 05:35:08;;;;;;;1.82;1.32;;;;;;;20.02;23.34;100546.50;1669547;83;21023;-89
2022/05/11 05:37:35;;;;;;;5.80;0.80;;;;;;;20.15;23.10;100550.77;1634025;83;21312;-87
2022/05/11 05:40:06;;;;;;;3.12;0.65;;;;;;;20.13;23.53;100548.84;1675942;83;21068;-90
2022/05/11 05:42:33;;;;;;;1.87;0.95;;;;;;;20.31;22.98;100547.78;1653016;83;21241;-89
2022/05/11 05:45:06;;;;;;;2.20;1.47;;;;;;;20.54;22.51;100542.15;1663683;83;20989;-90
2022/05/11 05:47:33;;;;;;;1.35;1.25;;;;;;;20.67;22.80;100542.36;1669427;84;21073;-88
2022/05/11 05:49:59;;;;;;;2.65;1.50;;;;;;;20.59;22.32;100537.36;1675472;83;21122;-90
2022/05/11 05:52:27;;;;;;;;;;;;;;;20.69;22.48;100538.05;1678570;83;20993;-88
2022/05/11 05:55:03;;;;;;;2.25;0.93;;;;;;;20.82;22.95;100536.33;1669082;83;20157;-90
2022/05/11 05:57:50;;;;;;;3.62;0.70;;;;;;;20.84;22.57;100538.79;1679492;84;21002;-80
2022/05/11 06:00:18;;;;;;;4.05;0.65;;;;;;;21.00;21.87;100536.53;1676947;83;21022;-86
2022/05/11 06:02:45;;;;;;;3.55;0.50;;;;;;;21.18;21.62;100546.23;1714409;82;21041;-74
2022/05/11 06:05:15;;;;;;;4.78;0.42;;;;;;;21.07;22.04;100545.84;1714322;82;21053;-72
2022/05/11 06:31:28;;;;;;;2.37;0.47;;;;;;;20.80;21.52;100527.09;1781190;78;22939;-72
2022/05/11 06:33:57;;;;;;;3.05;0.33;;;;;;;20.43;21.74;100537.66;1731128;81;21049;-78
2022/05/11 06:36:23;;;;;;;1.55;0.82;;;;;;;20.21;21.86;100532.19;1735595;78;21009;-73
2022/05/11 06:38:52;;;;;;;1.25;0.20;;;;;;;20.17;22.22;100533.24;1772848;79;21049;-81
2022/05/11 06:41:23;;;;;;;0.68;0.28;;;;;;;20.25;22.41;100525.75;1778041;78;20997;-72
2022/05/11 06:43:51;;;;;;;1.65;0.78;;;;;;;20.02;21.33;100514.87;1777541;78;20985;-76
2022/05/11 06:46:19;;;;;;;1.30;0.20;;;;;;;19.60;21.91;100519.27;1776390;78;21088;-76
2022/05/11 06:48:45;;;;;;;1.55;0.30;;;;;;;19.44;22.50;100517.39;1777642;79;21356;-69
2022/05/11 06:51:17;;;;;;;0.72;0.40;;;;;;;19.49;22.08;100518.80;1767344;79;21016;-76
2022/05/11 06:59:20;;;;;;;0.47;0.45;;;;;;;19.29;22.25;100517.08;1760760;79;20985;-74
2022/05/11 07:02:06;;;;;;;2.75;0.60;;;;;;;19.29;21.45;100523.33;1767793;78;88494;-91
2022/05/11 07:04:36;;;;;;;1.32;0.23;;;;;;;19.09;21.32;100518.34;1760238;78;21039;-92
2022/05/11 07:07:07;;;;;;;1.27;0.25;;;;;;;18.99;21.48;100522.20;1714237;79;87218;-73
2022/05/11 07:09:34;;;;;;;2.42;0.30;;;;;;;19.06;21.41;100514.76;1693750;81;21003;-83
2022/05/11 07:14:51;;;;;;;2.10;0.85;;;;;;;19.60;21.17;100498.19;1713674;82;21142;-83
2022/05/11 07:17:40;;;;;;;1.40;0.65;;;;;;;19.41;21.55;100499.75;1715302;79;21049;-82
2022/05/11 07:20:26;;;;;;;4.95;2.58;;;;;;;19.33;22.00;100492.59;1710493;82;20986;-79
2022/05/11 07:22:52;;;;;;;4.55;1.70;;;;;;;19.29;21.93;100495.46;1716702;81;21079;-74
2022/05/11 07:25:22;;;;;;;8.88;3.27;;;;;;;18.97;22.44;100491.92;1721188;81;21081;-89
2022/05/11 07:27:50;;;;;;;4.28;3.15;;;;;;;18.70;23.19;100489.70;1716057;81;21001;-79
2022/05/11 07:30:27;;;;;;;5.55;2.75;;;;;;;18.60;22.67;100494.91;1724277;81;21005;-83
2022/05/11 07:32:53;;;;;;;7.30;4.22;;;;;;;18.42;22.99;100493.16;1701278;82;21592;-91
2022/05/11 07:35:20;;;;;;;7.50;4.80;;;;;;;18.33;22.96;100491.87;1714342;83;21077;-92
2022/05/11 07:37:48;;;;;;;7.10;5.03;;;;;;;18.28;23.32;100493.41;1711323;83;21580;-74
2022/05/11 07:40:17;;;;;;;9.50;4.55;;;;;;;18.23;23.62;100493.81;1715225;83;21033;-90
2022/05/11 07:42:44;;;;;;;7.03;3.65;;;;;;;18.08;23.84;100482.98;1713604;83;21010;-90
2022/05/11 07:45:13;;;;;;;2.10;1.60;;;;;;;18.03;24.04;100481.52;1724062;82;21183;-91
2022/05/11 07:47:39;;;;;;;5.55;2.25;;;;;;;18.08;23.56;100480.29;1743125;81;21479;-90
2022/05/11 07:50:08;;;;;;;3.33;1.75;;;;;;;17.96;22.73;100490.23;1747490;81;22250;-82
2022/05/11 07:52:36;;;;;;;2.12;1.20;;;;;;;17.64;22.82;100479.73;1748564;81;21587;-87
2022/05/11 07:55:02;;;;;;;15.28;1.72;;;;;;;17.35;23.81;100484.63;1714944;82;21037;-86
2022/05/11 08:00:15;;;;;;;2.90;1.52;;;;;;;17.27;23.39;100475.00;1712797;82;20997;-91
2022/05/11 08:02:42;;;;;;;4.70;2.40;;;;;;;17.30;23.75;100479.41;1740574;82;21039;-86
2022/05/11 08:05:13;;;;;;;2.98;1.57;;;;;;;17.18;23.00;100480.41;1742761;81;21069;-75
2022/05/11 08:07:51;;;;;;;3.92;1.92;;;;;;;17.18;23.00;100480.41;1744281;81;21081;-75
2022/05/11 08:10:34;;;;;;;5.20;1.00;;;;;;;16.99;23.51;100482.33;1745812;81;21030;-73
2022/05/11 08:13:07;;;;;;;2.62;1.07;;;;;;;16.92;23.81;100481.08;1744762;79;21165;-70
2022/05/11 08:15:31;;;;;;;5.90;1.55;;;;;;;16.96;23.87;100476.06;1743647;81;21078;-74
2022/05/11 08:18:00;;;;;;;2.60;1.00;;;;;;;17.19;22.85;100474.80;1746275;81;21035;-92
2022/05/11 08:20:32;;;;;;;1.95;0.78;;;;;;;17.19;22.85;100474.80;1743173;81;21174;-89
2022/05/11 08:23:00;;;;;;;2.62;1.25;;;;;;;17.24;23.34;100472.25;1742848;81;21066;-88
2022/05/11 08:25:30;;;;;;;3.52;1.75;;;;;;;17.32;22.84;100470.57;1745941;81;20994;-84
2022/05/11 08:27:58;;;;;;;10.43;2.52;;;;;;;17.33;22.72;100471.41;1743383;81;21017;-88
2022/05/11 08:33:27;;;;;;;4.10;2.05;;;;;;;17.17;23.25;100463.44;1736014;82;21562;-91
2022/05/11 08:35:57;;;;;;;5.00;2.85;;;;;;;17.21;23.41;100463.27;1706961;82;21030;-79
2022/05/11 08:38:28;;;;;;;4.97;3.17;;;;;;;17.28;24.10;100462.66;1703037;82;21057;-91
2022/05/11 08:41:18;;;;;;;3.92;3.25;;;;;;;17.28;24.10;100462.66;1697010;82;21341;-89
2022/05/11 08:43:49;;;;;;;4.03;2.85;;;;;;;17.29;24.42;100467.51;1670210;82;21132;-83
2022/05/11 08:46:43;;;;;;;4.50;3.37;;;;;;;17.37;23.87;100458.30;1670067;82;21308;-91
2022/05/11 08:49:40;;;;;;;5.50;2.50;;;;;;;17.41;23.63;100451.40;1706059;82;21565;-86
2022/05/11 08:52:15;;;;;;;5.65;2.77;;;;;;;17.47;23.74;100449.12;1702418;82;21040;-88
2022/05/11 08:54:55;;;;;;;4.25;2.95;;;;;;;17.53;23.65;100449.53;1702369;82;21104;-75
2022/05/11 08:57:25;;;;;;;7.60;3.95;;;;;;;17.53;23.79;100448.19;1673438;82;21751;-74
2022/05/11 09:00:06;;;;;;;8.38;4.62;;;;;;;17.54;23.74;100443.61;1704502;82;21038;-73
2022/05/11 09:02:49;;;;;;;8.65;4.70;;;;;;;17.42;23.52;100441.74;1702605;82;21101;-86
2022/05/11 09:05:21;;;;;;;6.83;5.60;;;;;;;17.19;23.56;100429.55;1704613;82;21046;-84
2022/05/11 09:07:51;;;;;;;7.90;4.85;;;;;;;17.19;23.56;100429.55;1707522;82;21077;-89
2022/05/11 09:10:23;;;;;;;6.45;4.45;;;;;;;17.20;23.86;100429.33;1701412;83;21108;-90
2022/05/11 09:13:00;;;;;;;10.88;5.03;;;;;;;17.24;23.72;100429.16;1681829;83;21014;-89
2022/05/11 09:16:01;;;;;;;;;;;;;;;17.27;23.92;100415.73;1701088;83;21049;-92
2022/05/11 09:18:40;;;;;;;8.55;5.40;;;;;;;17.34;24.13;100412.95;1695579;83;20883;-73
2022/05/11 09:21:24;;;;;;;7.75;5.72;;;;;;;17.34;23.74;100413.77;1704179;83;21094;-87
2022/05/11 09:24:14;;;;;;;8.20;5.35;;;;;;;17.35;23.74;100418.62;1667285;83;21026;-80
2022/05/11 09:26:46;;;;;;;8.53;5.70;;;;;;;17.36;23.96;100412.20;1700568;83;21070;-88
2022/05/11 09:29:23;;;;;;;10.78;5.45;;;;;;;17.37;23.96;100413.31;1678000;83;21064;-79
2022/05/11 09:31:52;;;;;;;10.08;5.55;;;;;;;17.38;23.77;100412.78;1707118;82;21097;-83
2022/05/11 09:34:30;;;;;;;8.65;4.60;;;;;;;17.36;23.79;100410.84;1687121;82;21560;-86
2022/05/11 09:37:04;;;;;;;11.05;5.85;;;;;;;17.39;24.15;100407.70;1678783;83;21033;-89
2022/05/11 09:39:33;;;;;;;8.08;5.00;;;;;;;17.49;23.97;100420.06;1673339;84;21045;-86
2022/05/11 09:42:16;;;;;;;7.50;5.60;;;;;;;17.57;23.52;100414.33;1677035;83;21042;-87
2022/05/11 09:44:48;;;;;;;8.63;5.15;;;;;;;17.59;23.60;100405.48;1681029;83;21505;-91
2022/05/11 09:47:34;;;;;;;10.60;6.30;;;;;;;17.71;23.57;100392.03;1696219;83;21105;-78
2022/05/11 09:50:25;;;;;;;11.33;5.43;;;;;;;17.71;23.57;100392.03;1685817;84;21037;-83
2022/05/11 09:52:55;;;;;;;6.20;4.15;;;;;;;17.83;23.83;100398.76;1685233;84;21057;-86
2022/05/11 09:55:31;;;;;;;6.33;3.72;;;;;;;17.91;23.51;100390.34;1682620;83;21189;-85
2022/05/11 09:58:01;;;;;;;6.20;3.58;;;;;;;17.91;23.51;100390.34;1678502;83;21080;-91
2022/05/11 10:00:38;;;;;;;7.28;3.30;;;;;;;17.90;23.18;100386.02;1676879;83;21048;-91
2022/05/11 10:03:10;;;;;;;;;;;;;;;17.90;23.42;100389.52;1677872;83;21126;-88
2022/05/11 10:05:49;;;;;;;4.78;2.62;;;;;;;17.91;23.02;100391.69;1694996;83;20194;-74
2022/05/11 10:08:26;;;;;;;5.05;3.27;;;;;;;17.78;23.05;100394.59;1654336;85;21130;-81
2022/05/11 10:11:25;;;;;;;4.87;2.40;;;;;;;17.71;23.29;100389.33;1655913;85;21155;-90
2022/05/11 10:21:49;;;;;;;8.70;2.50;;;;;;;17.80;23.37;100388.44;1675011;84;21041;-90
2022/05/11 10:22:22;;;;;;;4.20;2.62;;;;;;;18.15;23.44;100373.60;1646340;85;21531;-86
2022/05/11 10:25:21;;;;;;;4.83;1.95;;;;;;;18.18;23.22;100376.37;1674066;83;21048;-77
2022/05/11 10:28:17;;;;;;;3.95;2.67;;;;;;;18.22;23.41;100379.70;1645781;85;21051;-87
2022/05/11 10:31:33;;;;;;;4.50;2.67;;;;;;;18.30;23.25;100379.84;1676207;83;21135;-79
2022/05/11 10:34:33;;;;;;;9.20;3.17;;;;;;;18.30;22.55;100381.20;1671883;83;21757;-83
2022/05/11 10:37:15;;;;;;;5.50;2.87;;;;;;;18.05;23.02;100378.25;1675245;83;21080;-87
2022/05/11 10:39:54;;;;;;;4.35;2.37;;;;;;;18.01;23.14;100371.70;1672446;83;21109;-87
2022/05/11 10:42:46;;;;;;;3.67;1.80;;;;;;;18.08;23.23;100375.09;1678903;83;21050;-87
2022/05/11 10:45:28;;;;;;;5.50;2.20;;;;;;;18.19;23.43;100361.81;1675100;83;21020;-87
2022/05/11 10:48:37;;;;;;;1.62;1.22;;;;;;;18.22;23.27;100358.11;1674045;83;21136;-86
2022/05/11 10:51:31;;;;;;;3.87;0.93;;;;;;;18.24;23.07;100356.53;1674096;83;21097;-87
2022/05/11 10:54:14;;;;;;;1.45;0.90;;;;;;;18.28;23.10;100350.41;1677734;83;21088;-77
2022/05/11 10:57:14;;;;;;;2.60;0.93;;;;;;;18.36;23.20;100343.00;1660539;83;21264;-82
2022/05/11 11:00:08;;;;;;;4.10;1.42;;;;;;;18.40;23.42;100336.89;1668743;84;21120;-85
2022/05/11 11:03:19;;;;;;;3.67;1.95;;;;;;;18.45;23.24;100336.97;1667660;84;20993;-83
2022/05/11 11:09:40;;;;;;;6.33;1.40;;;;;;;18.62;23.50;100336.21;1679945;84;21306;-87
2022/05/11 11:12:35;;;;;;;2.22;1.00;;;;;;;18.72;23.38;100332.88;1687649;83;20989;-77
2022/05/11 11:15:09;;;;;;;2.15;0.90;;;;;;;18.84;23.18;100325.04;1690202;83;21021;-87
2022/05/11 11:17:38;;;;;;;1.98;1.15;;;;;;;18.83;22.88;100326.09;1701844;83;21111;-75
2022/05/11 11:20:07;;;;;;;2.47;1.65;;;;;;;18.80;23.30;100326.59;1697158;83;21128;-83
2022/05/11 11:23:13;;;;;;;5.75;1.05;;;;;;;18.81;23.48;100318.77;1691463;83;21044;-87
2022/05/11 11:26:00;;;;;;;2.35;1.00;;;;;;;18.86;23.31;100316.16;1696531;83;21116;-77
2022/05/11 11:28:31;;;;;;;2.35;1.02;;;;;;;18.92;23.40;100316.25;1686485;83;21186;-87
2022/05/11 11:31:07;;;;;;;5.92;1.30;;;;;;;18.98;23.70;100322.02;1703415;83;21005;-82
2022/05/11 11:33:39;;;;;;;1.40;0.82;;;;;;;18.99;23.77;100323.14;1686601;83;21033;-89
2022/05/11 11:36:33;;;;;;;2.60;0.85;;;;;;;18.99;23.52;100320.97;1688454;83;21216;-82
2022/05/11 11:39:07;;;;;;;5.55;1.32;;;;;;;18.95;23.38;100315.75;1696130;83;21047;-85
2022/05/11 11:41:45;;;;;;;2.47;0.98;;;;;;;18.96;23.50;100313.34;1701891;83;21037;-90
2022/05/11 11:44:30;;;;;;;2.08;1.10;;;;;;;19.02;23.49;100311.01;1680609;83;21040;-84
2022/05/11 11:46:59;;;;;;;2.75;0.90;;;;;;;19.07;23.54;100308.41;1688868;83;21077;-89
2022/05/11 11:49:34;;;;;;;2.60;1.25;;;;;;;19.09;23.47;100302.77;1689510;82;21052;-85
2022/05/11 11:52:08;;;;;;;3.60;1.47;;;;;;;19.10;23.41;100296.27;1696758;83;21493;-84
2022/05/11 11:54:43;;;;;;;3.87;1.10;;;;;;;19.04;23.36;100298.08;1678257;83;21154;-89
2022/05/11 11:57:24;;;;;;;2.22;0.93;;;;;;;18.98;23.44;100292.31;1680832;83;21061;-88
2022/05/11 12:00:03;;;;;;;3.98;1.12;;;;;;;18.96;23.42;100287.15;1653272;85;21072;-82
2022/05/11 12:02:43;;;;;;;3.42;1.42;;;;;;;19.02;23.42;100284.00;1692143;83;21225;-87
2022/05/11 12:05:37;;;;;;;3.58;1.17;;;;;;;19.11;23.48;100283.06;1705357;82;21054;-80
2022/05/11 12:16:52;;;;;;;2.33;1.37;;;;;;;19.37;23.46;100270.22;1723691;82;21018;-90
2022/05/11 12:19:16;;;;;;;3.70;1.50;;;;;;;19.50;23.53;100264.20;1698768;82;21045;-86
2022/05/11 12:22:01;;;;;;;3.45;2.75;;;;;;;19.52;23.26;100266.11;1715590;82;21026;-88
2022/05/11 12:24:32;;;;;;;4.22;1.77;;;;;;;19.54;23.40;100268.84;1711970;82;21189;-90
2022/05/11 12:27:04;;;;;;;4.12;1.82;;;;;;;19.58;22.92;100269.97;1725740;82;21080;-88
2022/05/11 12:32:35;;;;;;;1.90;1.07;;;;;;;19.60;23.32;100261.08;1711498;82;21100;-87
2022/05/11 12:35:12;;;;;;;3.40;1.22;;;;;;;19.64;22.88;100258.15;1683144;83;20931;-71
2022/05/11 12:37:40;;;;;;;1.85;1.50;;;;;;;19.67;22.76;100258.20;1685759;83;21054;-83
2022/05/11 12:40:13;;;;;;;;;;;;;;;19.67;22.60;100250.09;1689323;83;21078;-77
2022/05/11 12:42:44;;;;;;;4.50;1.82;;;;;;;19.68;22.58;100249.55;1686312;81;20176;-73
2022/05/11 12:45:21;;;;;;;3.00;1.55;;;;;;;19.59;22.76;100245.94;1718903;81;21077;-91
2022/05/11 12:47:55;;;;;;;3.70;1.42;;;;;;;19.64;22.79;100239.22;1692469;83;21109;-86
2022/05/11 12:50:29;;;;;;;2.27;1.72;;;;;;;19.72;22.81;100239.38;1687861;83;21064;-73
2022/05/11 12:53:19;;;;;;;4.12;2.05;;;;;;;19.77;22.98;100234.02;1718982;82;21069;-82
2022/05/11 12:55:50;;;;;;;2.35;1.25;;;;;;;19.83;23.14;100233.53;1724704;81;21084;-89
2022/05/11 12:58:26;;;;;;;7.05;1.98;;;;;;;19.84;23.27;100233.83;1647869;85;21041;-83
2022/05/11 13:01:00;;;;;;;2.50;1.17;;;;;;;19.85;23.33;100238.16;1687442;83;20995;-87
2022/05/11 13:03:37;;;;;;;3.27;1.47;;;;;;;19.84;23.26;100240.59;1699231;83;21040;-84
2022/05/11 13:06:37;;;;;;;1.55;1.40;;;;;;;19.80;22.61;100232.70;1696207;84;20992;-87
2022/05/11 13:09:35;;;;;;;2.25;1.98;;;;;;;19.70;22.82;100216.31;1702613;81;20924;-78